Time;durP1;ratioP1;P1;durP2;ratioP2;P2;SDS_P1;SDS_P2;PMS_P1;PMS_P2;Temp;Humidity;BMP_temperature;BMP_pressure;BME280_temperature;BME280_humidity;BME280_pressure;Samples;Min_cycle;Max_cycle;Signal;HPM_P1;HPM_P2
2022/10/25 00:00:29;;;;;;;7.40;1.00;;;16.40;99.90;;;;;;5073939;28;20036;-75
2022/10/25 00:02:55;;;;;;;5.35;1.08;;;16.40;99.90;;;;;;5073724;28;20032;-75
2022/10/25 00:05:20;;;;;;;5.55;0.80;;;16.30;99.90;;;;;;5074395;28;20024;-75
2022/10/25 00:07:46;;;;;;;7.10;1.00;;;16.30;99.90;;;;;;5073639;28;20033;-75
2022/10/25 00:10:12;;;;;;;3.45;1.15;;;16.30;99.90;;;;;;5073576;28;20031;-77
2022/10/25 00:12:44;;;;;;;5.25;1.02;;;16.30;99.90;;;;;;5073510;28;20063;-76
2022/10/25 00:15:13;;;;;;;5.65;0.95;;;16.30;99.90;;;;;;5073663;28;20116;-76
2022/10/25 00:17:38;;;;;;;8.88;1.13;;;16.30;99.90;;;;;;5074083;28;20048;-76
2022/10/25 00:20:05;;;;;;;7.05;1.00;;;16.10;99.90;;;;;;5073574;28;20482;-76
2022/10/25 00:22:30;;;;;;;5.15;1.00;;;16.10;99.90;;;;;;5072451;28;20036;-75
2022/10/25 00:24:57;;;;;;;4.32;0.68;;;16.10;99.90;;;;;;5072617;28;20059;-74
2022/10/25 00:27:23;;;;;;;2.45;0.73;;;16.10;99.90;;;;;;5073252;28;20454;-74
2022/10/25 00:29:50;;;;;;;4.70;0.70;;;16.20;99.90;;;;;;5073308;28;20029;-74
2022/10/25 00:32:16;;;;;;;3.93;0.80;;;16.20;99.90;;;;;;5072611;28;20033;-76
2022/10/25 00:34:41;;;;;;;1.70;0.77;;;16.10;99.90;;;;;;5073242;28;20029;-76
2022/10/25 00:37:07;;;;;;;2.70;0.65;;;16.20;99.90;;;;;;5073144;28;20078;-76
2022/10/25 00:39:33;;;;;;;3.10;0.70;;;16.10;99.90;;;;;;5073218;28;20048;-76
2022/10/25 00:41:58;;;;;;;4.28;0.90;;;16.10;99.90;;;;;;5072321;28;20056;-75
2022/10/25 00:44:39;;;;;;;3.80;0.93;;;16.10;99.90;;;;;;5073521;28;20027;-76
2022/10/25 00:47:20;;;;;;;5.55;0.93;;;16.10;99.90;;;;;;5072982;28;20324;-76
2022/10/25 00:49:56;;;;;;;10.77;0.82;;;16.10;99.90;;;;;;5072984;28;20029;-74
2022/10/25 00:52:22;;;;;;;5.30;0.90;;;16.10;99.90;;;;;;5073037;28;20059;-73
2022/10/25 00:54:52;;;;;;;2.80;0.77;;;16.00;99.90;;;;;;5071821;28;20036;-74
2022/10/25 00:57:41;;;;;;;5.88;1.00;;;16.10;99.90;;;;;;5072893;28;20347;-75
2022/10/25 01:00:07;;;;;;;56.28;31.02;;;16.10;99.90;;;;;;5071601;28;20072;-77
2022/10/25 01:02:33;;;;;;;31.33;16.77;;;16.00;99.90;;;;;;5073033;28;20046;-76
2022/10/25 01:05:00;;;;;;;4.25;1.15;;;16.00;99.90;;;;;;5072901;28;20035;-75
2022/10/25 01:07:25;;;;;;;2.47;0.90;;;16.00;99.90;;;;;;5072751;28;20033;-75
2022/10/25 01:09:51;;;;;;;6.05;0.88;;;16.10;99.90;;;;;;5072572;28;20063;-75
2022/10/25 01:12:17;;;;;;;3.60;0.73;;;16.00;99.90;;;;;;5072308;28;20167;-75
2022/10/25 01:14:46;;;;;;;3.70;0.82;;;16.00;99.90;;;;;;5072847;28;20036;-74
2022/10/25 01:17:22;;;;;;;4.32;0.85;;;16.00;99.90;;;;;;5072490;28;20083;-75
2022/10/25 01:19:50;;;;;;;4.55;0.82;;;16.00;99.90;;;;;;5071314;28;20378;-75
2022/10/25 01:22:25;;;;;;;3.28;0.82;;;16.10;99.90;;;;;;5072523;28;20040;-75
2022/10/25 01:24:50;;;;;;;5.40;0.82;;;16.10;99.90;;;;;;5072372;28;20036;-74
2022/10/25 01:27:34;;;;;;;3.38;0.93;;;16.10;99.90;;;;;;5071071;28;20173;-75
2022/10/25 01:30:15;;;;;;;2.95;1.05;;;16.00;99.90;;;;;;5072184;28;20108;-75
2022/10/25 01:33:00;;;;;;;5.50;1.13;;;16.10;99.90;;;;;;5072879;28;20020;-75
2022/10/25 01:35:36;;;;;;;5.20;0.93;;;16.10;99.90;;;;;;5070968;28;20514;-75
2022/10/25 01:38:34;;;;;;;7.80;0.88;;;16.10;99.90;;;;;;5072080;28;20052;-74
2022/10/25 01:41:20;;;;;;;6.53;0.95;;;16.10;99.90;;;;;;5037560;28;20530;-75
2022/10/25 01:43:57;;;;;;;7.47;1.25;;;16.10;99.90;;;;;;5072128;28;20047;-73
2022/10/25 01:46:35;;;;;;;3.13;0.90;;;15.90;99.90;;;;;;5071772;28;20031;-74
2022/10/25 01:49:04;;;;;;;7.18;1.42;;;16.00;99.90;;;;;;5070911;28;20033;-74
2022/10/25 01:51:30;;;;;;;6.57;1.00;;;15.90;99.90;;;;;;5071828;28;20086;-74
2022/10/25 01:53:56;;;;;;;8.20;1.35;;;16.00;99.90;;;;;;5070579;28;20029;-74
2022/10/25 01:57:02;;;;;;;6.97;1.20;;;16.00;99.90;;;;;;5072193;28;20059;-74
2022/10/25 01:59:52;;;;;;;9.82;1.27;;;16.00;99.90;;;;;;5071061;28;20358;-74
2022/10/25 02:02:33;;;;;;;4.63;1.05;;;16.10;99.90;;;;;;5071802;28;20045;-75
2022/10/25 02:05:10;;;;;;;5.82;1.67;;;16.00;99.90;;;;;;5071772;28;20032;-75
2022/10/25 02:07:37;;;;;;;5.43;1.40;;;16.10;99.90;;;;;;5070500;28;20036;-76
2022/10/25 02:10:07;;;;;;;5.45;1.30;;;16.00;99.90;;;;;;5071438;28;20515;-75
2022/10/25 02:12:49;;;;;;;6.40;1.13;;;16.10;99.90;;;;;;5071483;28;20049;-75
2022/10/25 02:15:23;;;;;;;3.63;1.10;;;16.00;99.90;;;;;;5070786;28;20025;-74
2022/10/25 02:17:56;;;;;;;9.25;1.55;;;16.00;99.90;;;;;;5071378;28;20407;-73
2022/10/25 02:20:26;;;;;;;4.53;1.17;;;16.00;99.90;;;;;;5071835;28;20016;-76
2022/10/25 02:22:53;;;;;;;7.13;1.23;;;16.00;99.90;;;;;;5071325;28;20028;-75
2022/10/25 02:25:20;;;;;;;3.27;1.00;;;16.00;99.90;;;;;;5071214;28;20392;-76
2022/10/25 02:27:49;;;;;;;5.80;1.95;;;16.00;99.90;;;;;;5071338;28;20048;-75
2022/10/25 02:30:15;;;;;;;6.80;1.20;;;16.10;99.90;;;;;;5070150;28;20420;-74
2022/10/25 02:32:41;;;;;;;3.25;1.17;;;16.10;99.90;;;;;;5072255;28;20439;-73
2022/10/25 02:35:15;;;;;;;7.28;1.70;;;16.10;99.90;;;;;;5071376;28;20374;-75
2022/10/25 02:37:41;;;;;;;4.18;1.08;;;16.10;99.90;;;;;;5071266;28;20028;-74
2022/10/25 02:40:08;;;;;;;4.38;1.42;;;16.10;99.90;;;;;;5070962;28;20362;-74
2022/10/25 02:42:34;;;;;;;5.47;1.42;;;16.10;99.90;;;;;;5071007;28;20378;-74
2022/10/25 02:45:00;;;;;;;4.90;1.42;;;16.10;99.90;;;;;;5069950;28;20111;-74
2022/10/25 02:47:25;;;;;;;7.22;1.35;;;16.10;99.90;;;;;;5071230;28;20060;-75
2022/10/25 02:49:51;;;;;;;7.53;1.33;;;16.10;99.90;;;;;;5069807;28;20032;-76
2022/10/25 02:52:16;;;;;;;3.10;1.05;;;16.00;99.90;;;;;;5070881;28;20035;-74
2022/10/25 02:54:42;;;;;;;5.32;1.48;;;16.00;99.90;;;;;;5070775;28;20417;-74
2022/10/25 02:57:08;;;;;;;4.10;1.33;;;16.00;99.90;;;;;;5069236;28;20146;-74
2022/10/25 02:59:34;;;;;;;5.38;2.00;;;16.10;99.90;;;;;;5071244;28;20025;-75
2022/10/25 03:01:59;;;;;;;9.18;1.80;;;16.00;99.90;;;;;;5069659;28;20040;-75
2022/10/25 03:04:25;;;;;;;4.32;1.33;;;16.00;99.90;;;;;;5069500;28;20025;-76
2022/10/25 03:06:51;;;;;;;4.30;1.67;;;16.00;99.90;;;;;;5071040;28;20500;-74
2022/10/25 03:09:16;;;;;;;5.95;1.70;;;16.00;99.90;;;;;;5070753;28;20458;-74
2022/10/25 03:11:42;;;;;;;4.28;1.90;;;16.10;99.90;;;;;;5071231;28;20031;-76
2022/10/25 03:14:07;;;;;;;6.50;2.25;;;16.00;99.90;;;;;;5070323;28;20040;-75
2022/10/25 03:16:33;;;;;;;12.98;2.97;;;16.00;99.90;;;;;;5070813;28;20489;-76
2022/10/25 03:18:59;;;;;;;6.78;2.42;;;16.00;99.90;;;;;;5069456;28;20029;-75
2022/10/25 03:21:25;;;;;;;9.82;2.17;;;16.00;99.90;;;;;;5070389;28;20488;-74
2022/10/25 03:23:51;;;;;;;10.00;2.55;;;16.10;99.90;;;;;;5071063;28;20032;-75
2022/10/25 03:26:16;;;;;;;7.85;2.30;;;16.10;99.90;;;;;;5073013;28;20043;-76
2022/10/25 03:28:42;;;;;;;9.20;2.92;;;16.00;99.90;;;;;;5074842;28;20036;-75
2022/10/25 03:31:13;;;;;;;7.65;1.88;;;16.10;99.90;;;;;;5074647;28;20107;-75
2022/10/25 03:33:39;;;;;;;9.65;2.63;;;16.10;99.90;;;;;;5074599;28;20498;-74
2022/10/25 03:36:05;;;;;;;7.32;2.60;;;16.00;99.90;;;;;;5074530;28;20110;-74
2022/10/25 03:38:31;;;;;;;9.82;2.40;;;16.10;99.90;;;;;;5075159;28;20135;-75
2022/10/25 03:40:57;;;;;;;10.95;2.88;;;16.10;99.90;;;;;;5074574;28;20032;-76
2022/10/25 03:43:22;;;;;;;8.15;3.20;;;16.10;99.90;;;;;;5074560;28;20412;-74
2022/10/25 03:45:48;;;;;;;12.23;2.95;;;16.10;99.90;;;;;;5074645;28;20033;-75
2022/10/25 03:48:14;;;;;;;11.07;3.17;;;16.10;99.90;;;;;;5073496;28;20070;-74
2022/10/25 03:50:40;;;;;;;9.23;3.55;;;16.00;99.90;;;;;;5073990;28;20099;-74
2022/10/25 03:53:06;;;;;;;8.55;3.20;;;16.10;99.90;;;;;;5074316;28;20047;-74
2022/10/25 03:55:32;;;;;;;9.63;3.35;;;16.00;99.90;;;;;;5074086;28;20040;-74
2022/10/25 03:57:58;;;;;;;6.65;3.35;;;16.00;99.90;;;;;;5074391;28;20094;-74
2022/10/25 04:00:24;;;;;;;11.13;3.97;;;16.00;99.90;;;;;;5074358;28;20028;-75
2022/10/25 04:02:58;;;;;;;10.10;4.05;;;16.00;99.90;;;;;;5073920;28;20021;-74
2022/10/25 04:05:24;;;;;;;7.68;3.53;;;16.00;99.90;;;;;;5074498;28;20242;-75
2022/10/25 04:07:50;;;;;;;10.43;3.95;;;16.00;99.90;;;;;;5074154;28;20408;-76
2022/10/25 04:10:18;;;;;;;10.27;4.13;;;16.00;99.90;;;;;;5073944;28;20127;-75
2022/10/25 04:12:45;;;;;;;8.77;3.90;;;16.00;99.90;;;;;;5073996;28;20189;-75
2022/10/25 04:15:11;;;;;;;8.20;3.90;;;16.00;99.90;;;;;;5074371;28;20027;-74
2022/10/25 04:17:36;;;;;;;8.38;3.92;;;16.00;99.90;;;;;;5074439;28;20111;-76
2022/10/25 04:20:02;;;;;;;7.72;4.22;;;16.00;99.90;;;;;;5073041;28;20336;-75
2022/10/25 04:22:28;;;;;;;12.27;4.78;;;15.90;99.90;;;;;;5073785;28;20028;-76
2022/10/25 04:24:54;;;;;;;11.20;4.78;;;15.90;99.90;;;;;;5074134;28;20048;-75
2022/10/25 04:27:19;;;;;;;11.85;4.45;;;15.90;99.90;;;;;;5072582;28;20047;-74
2022/10/25 04:29:45;;;;;;;14.80;4.35;;;16.00;99.90;;;;;;5074080;28;20029;-74
2022/10/25 04:32:11;;;;;;;12.35;4.78;;;15.90;99.90;;;;;;5073851;28;20056;-75
2022/10/25 04:34:37;;;;;;;13.98;4.40;;;15.90;99.90;;;;;;5073158;28;20391;-74
2022/10/25 04:37:03;;;;;;;9.73;4.05;;;16.00;99.90;;;;;;5073323;28;20344;-76
2022/10/25 04:39:28;;;;;;;8.82;3.47;;;15.90;99.90;;;;;;5072270;28;20020;-75
2022/10/25 04:41:54;;;;;;;11.10;3.83;;;16.00;99.90;;;;;;5072471;28;20023;-75
2022/10/25 04:44:20;;;;;;;10.35;3.90;;;16.00;99.90;;;;;;5073776;28;20016;-74
2022/10/25 04:46:45;;;;;;;11.93;3.70;;;15.90;99.90;;;;;;5073626;28;20043;-75
2022/10/25 04:49:12;;;;;;;10.48;3.75;;;15.90;99.90;;;;;;5073532;28;20029;-75
2022/10/25 04:51:39;;;;;;;10.68;3.85;;;16.00;99.90;;;;;;5073272;28;20025;-76
2022/10/25 04:54:04;;;;;;;11.98;4.13;;;16.00;99.90;;;;;;5073430;28;20029;-76
2022/10/25 04:56:30;;;;;;;11.15;3.70;;;16.00;99.90;;;;;;5073772;28;20387;-76
2022/10/25 04:58:58;;;;;;;7.28;3.78;;;16.00;99.90;;;;;;5072360;28;20070;-75
2022/10/25 05:01:24;;;;;;;9.82;3.17;;;16.00;99.90;;;;;;5073220;28;20066;-77
2022/10/25 05:03:49;;;;;;;11.55;3.00;;;16.00;99.90;;;;;;5073262;28;20028;-75
2022/10/25 05:06:24;;;;;;;8.43;3.25;;;16.10;99.90;;;;;;5073414;28;20036;-76
2022/10/25 05:08:51;;;;;;;11.65;3.50;;;16.10;99.90;;;;;;5071849;28;20050;-74
2022/10/25 05:11:19;;;;;;;13.85;4.20;;;16.10;99.90;;;;;;5073561;28;20497;-75
2022/10/25 05:13:45;;;;;;;10.30;3.17;;;16.10;99.90;;;;;;5072534;28;20044;-76
2022/10/25 05:16:20;;;;;;;5.43;2.83;;;16.10;99.90;;;;;;5071690;28;20112;-77
2022/10/25 05:18:46;;;;;;;7.32;2.90;;;16.00;99.90;;;;;;5072575;28;20401;-75
2022/10/25 05:21:14;;;;;;;7.78;2.67;;;16.10;99.90;;;;;;5072760;28;20103;-76
2022/10/25 05:23:40;;;;;;;6.83;2.70;;;16.10;99.90;;;;;;5073188;28;20508;-75
2022/10/25 05:26:09;;;;;;;6.88;2.67;;;16.00;99.90;;;;;;5072841;28;20037;-76
2022/10/25 05:28:36;;;;;;;8.00;2.83;;;16.10;99.90;;;;;;5072838;28;20048;-75
2022/10/25 05:31:14;;;;;;;8.48;2.88;;;16.00;99.90;;;;;;5072811;28;20453;-75
2022/10/25 05:33:40;;;;;;;10.50;2.90;;;16.10;99.90;;;;;;5071899;28;20041;-75
2022/10/25 05:36:05;;;;;;;9.63;3.58;;;16.00;99.90;;;;;;5071357;28;20036;-76
2022/10/25 05:38:31;;;;;;;11.35;3.10;;;16.00;99.90;;;;;;5072891;28;20036;-75
2022/10/25 05:40:59;;;;;;;16.95;3.25;;;16.10;99.90;;;;;;5072545;28;20025;-76
2022/10/25 05:43:25;;;;;;;12.80;3.80;;;16.00;99.90;;;;;;5072323;28;20426;-75
2022/10/25 05:45:59;;;;;;;13.50;3.75;;;16.10;99.90;;;;;;5062448;28;20095;-75
2022/10/25 05:48:25;;;;;;;7.63;3.70;;;16.10;99.90;;;;;;5052347;28;20048;-75
2022/10/25 05:50:52;;;;;;;12.20;3.85;;;16.10;99.90;;;;;;5051412;28;20467;-76
2022/10/25 05:53:18;;;;;;;10.35;4.80;;;16.10;99.90;;;;;;5052580;28;20466;-75
2022/10/25 05:55:44;;;;;;;13.68;4.53;;;16.10;99.90;;;;;;5052546;28;20033;-76
2022/10/25 05:58:09;;;;;;;14.77;4.35;;;16.20;99.90;;;;;;5052554;28;20455;-76
2022/10/25 06:00:35;;;;;;;12.65;4.60;;;16.20;99.90;;;;;;5051902;28;20385;-76
2022/10/25 06:03:01;;;;;;;10.60;4.10;;;16.20;99.90;;;;;;5052218;28;20378;-75
2022/10/25 06:05:27;;;;;;;12.75;3.97;;;16.20;99.90;;;;;;5052464;28;20021;-76
2022/10/25 06:07:53;;;;;;;14.68;4.00;;;16.20;99.90;;;;;;5067492;28;20040;-76
2022/10/25 06:10:19;;;;;;;16.52;4.10;;;16.10;99.90;;;;;;5052257;28;20026;-76
2022/10/25 06:12:44;;;;;;;9.07;3.80;;;16.10;99.90;;;;;;5052425;28;20113;-75
2022/10/25 06:15:10;;;;;;;10.88;4.00;;;16.20;99.90;;;;;;5051497;28;20064;-74
2022/10/25 06:17:36;;;;;;;9.02;3.97;;;16.20;99.90;;;;;;5052119;28;20510;-77
2022/10/25 06:20:01;;;;;;;9.50;4.03;;;16.20;99.90;;;;;;5055743;28;20041;-78
2022/10/25 06:22:27;;;;;;;10.50;3.85;;;16.20;99.90;;;;;;5054597;28;20025;-77
2022/10/25 06:24:53;;;;;;;6.28;3.20;;;16.20;99.90;;;;;;5053249;28;20112;-76
2022/10/25 06:27:18;;;;;;;8.88;3.90;;;16.20;99.90;;;;;;5056617;28;20052;-78
2022/10/25 06:29:44;;;;;;;14.52;5.05;;;16.10;99.90;;;;;;5053970;28;20025;-77
2022/10/25 06:32:09;;;;;;;11.50;3.72;;;16.20;99.90;;;;;;5056965;28;20037;-77
2022/10/25 06:34:35;;;;;;;9.25;3.75;;;16.20;99.90;;;;;;5074223;28;20467;-78
2022/10/25 06:37:01;;;;;;;13.13;3.60;;;16.00;99.90;;;;;;5058098;28;20037;-77
2022/10/25 06:39:26;;;;;;;7.80;3.50;;;16.10;99.90;;;;;;5054643;28;20435;-76
2022/10/25 06:41:52;;;;;;;12.80;3.25;;;16.10;99.90;;;;;;5053660;28;20063;-76
2022/10/25 06:44:17;;;;;;;9.52;3.45;;;16.10;99.90;;;;;;5054038;28;20009;-77
2022/10/25 06:46:43;;;;;;;11.13;3.40;;;16.20;99.90;;;;;;5053373;28;20041;-77
2022/10/25 06:49:10;;;;;;;10.75;3.30;;;16.10;99.90;;;;;;5052459;28;20029;-76
2022/10/25 06:51:36;;;;;;;9.20;3.22;;;16.10;99.90;;;;;;5053534;28;20029;-75
2022/10/25 06:54:06;;;;;;;13.82;4.32;;;16.10;99.90;;;;;;5055080;28;20032;-78
2022/10/25 06:56:33;;;;;;;11.70;4.38;;;16.10;99.90;;;;;;5059696;28;20010;-80
2022/10/25 06:58:58;;;;;;;19.77;4.10;;;16.10;99.90;;;;;;5061087;28;20029;-77
2022/10/25 07:01:25;;;;;;;6.47;3.38;;;16.10;99.90;;;;;;5061087;28;20482;-80
2022/10/25 07:03:52;;;;;;;12.18;3.50;;;16.10;99.90;;;;;;5062597;28;20029;-77
2022/10/25 07:06:28;;;;;;;10.95;3.60;;;16.00;99.90;;;;;;5062017;28;20021;-77
2022/10/25 07:08:56;;;;;;;10.57;3.03;;;16.00;99.90;;;;;;5055048;28;20036;-76
2022/10/25 07:11:26;;;;;;;11.00;3.45;;;16.10;99.90;;;;;;5070031;28;20097;-77
2022/10/25 07:13:52;;;;;;;9.05;3.13;;;16.10;99.90;;;;;;5055932;28;20041;-78
2022/10/25 07:16:20;;;;;;;11.55;4.20;;;16.10;99.90;;;;;;5071143;28;20051;-77
2022/10/25 07:18:47;;;;;;;10.88;4.40;;;16.10;99.90;;;;;;5053329;28;20094;-77
2022/10/25 07:21:15;;;;;;;11.90;3.28;;;16.10;99.90;;;;;;5074551;28;20029;-80
2022/10/25 07:23:41;;;;;;;12.07;3.10;;;16.10;99.90;;;;;;5077008;28;20085;-81
2022/10/25 07:26:12;;;;;;;13.13;3.53;;;16.20;99.90;;;;;;5057364;28;20105;-77
2022/10/25 07:28:39;;;;;;;11.82;3.17;;;16.20;99.90;;;;;;5060991;28;20037;-79
2022/10/25 07:31:05;;;;;;;10.82;3.45;;;16.20;99.90;;;;;;5075237;28;20557;-79
2022/10/25 07:33:32;;;;;;;10.68;3.17;;;16.10;99.90;;;;;;5058061;28;20041;-77
2022/10/25 07:35:58;;;;;;;14.05;3.38;;;16.10;99.90;;;;;;5058778;28;20055;-79
2022/10/25 07:38:23;;;;;;;17.77;4.03;;;16.10;99.90;;;;;;5076295;28;20017;-77
2022/10/25 07:40:55;;;;;;;12.85;2.75;;;16.10;99.90;;;;;;5059665;28;20029;-77
2022/10/25 07:43:21;;;;;;;9.10;3.13;;;16.20;99.90;;;;;;5075783;28;20033;-79
2022/10/25 07:45:49;;;;;;;13.68;2.92;;;16.20;99.90;;;;;;5059462;28;20037;-79
2022/10/25 07:48:15;;;;;;;;;;;16.10;99.90;;;;;;5075945;28;20044;-79
2022/10/25 07:50:40;;;;;;;8.90;2.30;;;16.10;99.90;;;;;;5076809;28;19904;-77
2022/10/25 07:53:06;;;;;;;12.80;3.10;;;16.20;99.90;;;;;;5076245;28;20037;-82
2022/10/25 07:55:32;;;;;;;11.68;3.90;;;16.30;99.90;;;;;;5070086;28;20068;-76
2022/10/25 07:58:06;;;;;;;17.10;3.75;;;16.30;99.90;;;;;;5052414;28;20128;-78
2022/10/25 08:00:33;;;;;;;13.80;3.00;;;16.30;99.90;;;;;;5052566;28;20033;-79
2022/10/25 08:02:59;;;;;;;10.50;2.50;;;16.40;99.90;;;;;;5055142;28;20055;-79
2022/10/25 08:05:25;;;;;;;9.40;2.80;;;16.30;99.90;;;;;;5068447;28;20025;-79
2022/10/25 08:07:50;;;;;;;12.55;3.13;;;16.40;99.90;;;;;;5051357;28;20041;-83
2022/10/25 08:10:19;;;;;;;10.73;3.38;;;16.30;99.90;;;;;;5066666;28;20421;-78
2022/10/25 08:12:45;;;;;;;20.55;2.95;;;16.40;99.90;;;;;;5051120;28;20056;-76
2022/10/25 08:15:12;;;;;;;13.07;3.63;;;16.40;99.90;;;;;;5054893;28;20417;-81
2022/10/25 08:17:37;;;;;;;16.15;3.28;;;16.40;99.90;;;;;;5055642;28;20036;-79
2022/10/25 08:20:03;;;;;;;11.57;3.28;;;16.30;99.90;;;;;;5070489;28;20033;-79
2022/10/25 08:22:29;;;;;;;13.93;2.80;;;16.40;99.90;;;;;;5054656;28;20128;-81
2022/10/25 08:24:55;;;;;;;12.77;3.45;;;16.40;99.90;;;;;;5070368;28;20497;-78
2022/10/25 08:27:21;;;;;;;6.30;2.40;;;16.40;99.90;;;;;;5054479;28;20130;-76
2022/10/25 08:29:46;;;;;;;12.85;2.72;;;16.50;99.90;;;;;;5053797;28;20033;-76
2022/10/25 08:32:13;;;;;;;16.38;3.90;;;16.60;99.90;;;;;;5053978;28;20060;-79
2022/10/25 08:34:38;;;;;;;16.58;3.80;;;16.70;99.90;;;;;;5069446;28;20402;-80
2022/10/25 08:37:04;;;;;;;11.57;3.80;;;16.70;99.90;;;;;;5069627;28;20502;-78
2022/10/25 08:39:30;;;;;;;11.82;3.15;;;16.90;99.90;;;;;;5069771;28;20036;-79
2022/10/25 08:41:59;;;;;;;13.93;3.33;;;16.80;99.90;;;;;;5054003;28;20447;-75
2022/10/25 08:44:51;;;;;;;13.48;3.33;;;16.90;99.90;;;;;;5070010;28;20021;-79
2022/10/25 08:47:32;;;;;;;16.85;3.42;;;17.00;99.90;;;;;;5053585;28;20048;-74
2022/10/25 08:50:06;;;;;;;10.80;3.00;;;17.00;99.90;;;;;;5069451;28;20037;-78
2022/10/25 08:52:39;;;;;;;9.88;2.90;;;17.00;99.90;;;;;;5053924;28;20044;-74
2022/10/25 08:55:18;;;;;;;11.13;2.67;;;16.90;99.90;;;;;;5053435;28;20483;-73
2022/10/25 08:57:47;;;;;;;7.38;2.75;;;16.80;99.90;;;;;;5053861;28;20056;-74
2022/10/25 09:00:21;;;;;;;11.00;2.92;;;16.80;99.90;;;;;;5053711;28;20071;-76
2022/10/25 09:02:58;;;;;;;8.85;3.10;;;16.80;99.90;;;;;;5053920;28;20022;-77
2022/10/25 09:05:47;;;;;;;6.35;2.63;;;16.80;99.90;;;;;;5069371;28;20059;-76
2022/10/25 09:08:31;;;;;;;11.57;2.78;;;16.70;99.90;;;;;;5053516;28;20119;-78
2022/10/25 09:11:20;;;;;;;12.38;2.33;;;16.70;99.90;;;;;;5053224;28;20029;-76
2022/10/25 09:13:54;;;;;;;8.57;2.63;;;16.80;99.90;;;;;;5053273;28;20610;-79
2022/10/25 09:16:31;;;;;;;8.80;2.47;;;16.90;99.90;;;;;;5052821;28;20040;-76
2022/10/25 09:18:56;;;;;;;16.90;3.30;;;16.80;99.90;;;;;;5052883;28;20475;-75
2022/10/25 09:21:41;;;;;;;10.68;3.28;;;16.90;99.90;;;;;;5068031;28;20108;-75
2022/10/25 09:24:28;;;;;;;15.45;3.00;;;16.80;99.90;;;;;;5052441;28;20078;-79
2022/10/25 09:27:06;;;;;;;11.13;2.88;;;16.90;99.90;;;;;;5052733;28;20060;-77
2022/10/25 09:29:36;;;;;;;;;;;17.10;99.90;;;;;;5053469;28;20029;-77
2022/10/25 09:32:15;;;;;;;7.82;2.45;;;17.10;99.90;;;;;;5052790;28;19946;-77
2022/10/25 09:34:42;;;;;;;13.82;2.85;;;17.20;99.90;;;;;;5052354;28;20057;-76
2022/10/25 09:37:27;;;;;;;7.82;2.00;;;17.60;99.90;;;;;;5067918;28;20072;-75
2022/10/25 09:39:58;;;;;;;14.27;3.05;;;17.70;99.90;;;;;;5052556;28;20033;-76
2022/10/25 09:42:29;;;;;;;14.45;2.72;;;18.00;99.90;;;;;;5052403;28;20451;-77
2022/10/25 09:45:00;;;;;;;8.95;2.30;;;17.90;99.70;;;;;;5052085;28;20039;-76
2022/10/25 09:48:07;;;;;;;6.72;2.35;;;17.60;99.90;;;;;;5052479;28;20610;-78
2022/10/25 09:50:59;;;;;;;9.60;2.70;;;17.50;99.50;;;;;;5052217;28;20055;-79
2022/10/25 09:53:25;;;;;;;9.90;2.15;;;17.40;99.70;;;;;;5052176;28;20041;-78
2022/10/25 09:55:56;;;;;;;10.43;2.50;;;17.30;99.70;;;;;;5052022;28;20044;-76
2022/10/25 09:58:24;;;;;;;9.25;2.45;;;17.20;99.90;;;;;;5052152;28;20086;-77
2022/10/25 10:00:53;;;;;;;9.77;2.33;;;17.20;99.90;;;;;;5067592;28;20102;-74
2022/10/25 10:03:19;;;;;;;;;;;17.30;99.90;;;;;;5052874;28;20039;-75
2022/10/25 10:05:56;;;;;;;10.70;1.98;;;17.10;99.90;;;;;;5052515;28;19911;-74
2022/10/25 10:08:26;;;;;;;7.72;1.70;;;17.10;99.80;;;;;;5052429;28;20040;-76
2022/10/25 10:10:53;;;;;;;5.72;1.88;;;17.20;99.70;;;;;;5052201;28;20467;-74
2022/10/25 10:13:41;;;;;;;8.38;1.92;;;17.10;99.80;;;;;;5067295;28;20059;-74
2022/10/25 10:16:15;;;;;;;;;;;17.10;99.90;;;;;;5052289;28;20224;-74
2022/10/25 10:18:42;;;;;;;6.53;2.30;;;17.10;99.80;;;;;;5051741;28;20334;-74
2022/10/25 10:21:10;;;;;;;10.68;2.60;;;17.20;99.80;;;;;;5067413;28;20316;-75
2022/10/25 10:23:58;;;;;;;11.57;2.50;;;17.20;99.70;;;;;;5052313;28;20104;-75
2022/10/25 10:26:42;;;;;;;11.05;3.42;;;17.10;99.60;;;;;;5052019;28;20128;-78
2022/10/25 10:29:07;;;;;;;6.40;1.75;;;17.30;99.70;;;;;;5051586;28;20040;-76
2022/10/25 10:31:43;;;;;;;12.00;2.17;;;17.20;99.30;;;;;;5067123;28;20036;-76
2022/10/25 10:34:29;;;;;;;6.68;2.03;;;17.30;99.30;;;;;;5051423;28;20029;-74
2022/10/25 10:37:15;;;;;;;6.82;1.70;;;17.40;99.00;;;;;;5049369;28;20059;-75
2022/10/25 10:40:22;;;;;;;9.68;2.67;;;17.40;98.70;;;;;;5051207;28;20033;-75
2022/10/25 10:42:48;;;;;;;4.50;1.63;;;17.40;98.60;;;;;;5066734;28;20037;-75
2022/10/25 10:45:18;;;;;;;10.40;2.28;;;17.40;98.50;;;;;;5051107;28;20079;-76
2022/10/25 10:47:44;;;;;;;6.40;2.28;;;17.50;98.30;;;;;;5052145;28;20104;-77
2022/10/25 10:50:22;;;;;;;6.03;1.70;;;17.70;98.60;;;;;;5066625;28;20163;-76
2022/10/25 10:53:08;;;;;;;;;;;17.90;98.00;;;;;;5051742;28;20126;-75
2022/10/25 10:55:45;;;;;;;5.90;1.85;;;18.60;97.80;;;;;;5066674;28;19913;-76
2022/10/25 10:58:15;;;;;;;6.30;1.35;;;19.20;97.40;;;;;;5050850;28;20029;-76
2022/10/25 11:00:56;;;;;;;6.05;1.75;;;19.40;95.90;;;;;;5049857;28;20040;-84
2022/10/25 11:03:43;;;;;;;5.22;1.63;;;19.80;96.10;;;;;;5051615;28;20040;-75
2022/10/25 11:06:23;;;;;;;5.90;1.55;;;19.60;95.40;;;;;;5050999;28;20028;-79
2022/10/25 11:09:03;;;;;;;3.97;1.17;;;19.10;95.90;;;;;;5050644;28;20108;-79
2022/10/25 11:11:28;;;;;;;8.77;2.10;;;19.00;96.10;;;;;;5051842;28;20021;-81
2022/10/25 11:13:56;;;;;;;8.95;2.10;;;18.70;96.40;;;;;;5050362;28;20045;-82
2022/10/25 11:16:47;;;;;;;7.20;1.63;;;18.70;96.80;;;;;;5051303;28;20070;-80
2022/10/25 11:19:28;;;;;;;8.73;1.40;;;18.90;96.70;;;;;;5051125;28;20120;-81
2022/10/25 11:22:20;;;;;;;4.78;1.88;;;18.70;96.70;;;;;;5051124;28;20036;-77
2022/10/25 11:25:03;;;;;;;8.30;2.10;;;19.10;97.10;;;;;;5051067;28;20118;-77
2022/10/25 11:27:50;;;;;;;14.40;4.38;;;19.30;96.40;;;;;;5050553;28;20054;-77
2022/10/25 11:30:18;;;;;;;20.90;7.63;;;19.00;96.70;;;;;;5051574;28;20029;-78
2022/10/25 11:33:20;;;;;;;9.52;3.47;;;19.00;96.80;;;;;;5051145;28;20748;-77
2022/10/25 11:35:49;;;;;;;8.10;2.65;;;18.60;97.00;;;;;;5066575;28;20084;-79
2022/10/25 11:38:54;;;;;;;8.00;1.80;;;18.70;97.70;;;;;;5051198;28;20069;-79
2022/10/25 11:41:52;;;;;;;7.25;1.63;;;18.60;97.60;;;;;;5050861;28;20052;-79
2022/10/25 11:44:33;;;;;;;4.40;1.85;;;18.70;97.20;;;;;;5051196;28;20486;-77
2022/10/25 11:47:11;;;;;;;7.07;1.88;;;18.70;97.00;;;;;;5050795;28;20570;-79
2022/10/25 11:50:06;;;;;;;13.70;3.63;;;18.50;97.20;;;;;;5054871;28;20086;-80
2022/10/25 11:52:52;;;;;;;4.43;1.75;;;18.50;97.60;;;;;;5041111;28;20036;-77
2022/10/25 11:55:23;;;;;;;11.20;3.00;;;18.80;97.50;;;;;;5054568;28;20517;-79
2022/10/25 11:58:08;;;;;;;9.93;2.30;;;18.70;97.20;;;;;;5054436;28;20354;-78
2022/10/25 12:00:52;;;;;;;6.03;2.42;;;18.70;97.40;;;;;;5054524;28;20401;-80
2022/10/25 12:03:28;;;;;;;9.90;3.35;;;18.90;97.40;;;;;;5054871;28;20358;-79
2022/10/25 12:05:59;;;;;;;10.80;3.15;;;19.00;97.30;;;;;;5054324;28;20037;-82
2022/10/25 12:08:56;;;;;;;9.10;3.10;;;19.10;96.90;;;;;;5070853;28;20082;-79
2022/10/25 12:11:31;;;;;;;4.00;1.50;;;19.10;97.00;;;;;;5026073;28;20037;-77
2022/10/25 12:14:06;;;;;;;61.30;38.35;;;18.80;96.30;;;;;;5054575;28;20403;-78
2022/10/25 12:16:34;;;;;;;14.65;4.85;;;18.80;96.60;;;;;;5055300;28;20037;-83
2022/10/25 12:19:10;;;;;;;6.45;1.35;;;18.90;96.30;;;;;;5054633;28;20078;-84
2022/10/25 12:21:48;;;;;;;8.35;1.75;;;18.80;96.20;;;;;;5054187;28;20118;-79
2022/10/25 12:24:25;;;;;;;10.13;1.60;;;18.80;96.10;;;;;;5070161;28;20025;-81
2022/10/25 12:26:53;;;;;;;5.80;1.35;;;18.70;96.00;;;;;;5069742;28;20036;-79
2022/10/25 12:29:35;;;;;;;7.40;1.63;;;18.80;96.20;;;;;;5054767;28;20490;-78
2022/10/25 12:32:04;;;;;;;5.07;1.42;;;19.00;95.70;;;;;;5054012;28;20041;-79
2022/10/25 12:34:56;;;;;;;6.93;1.45;;;18.80;95.70;;;;;;5054335;28;20033;-81
2022/10/25 12:37:38;;;;;;;6.28;1.40;;;18.80;95.60;;;;;;5054091;28;20428;-80
2022/10/25 12:40:06;;;;;;;6.65;1.40;;;18.80;95.90;;;;;;5052819;28;20051;-77
2022/10/25 12:42:44;;;;;;;3.08;1.10;;;18.90;95.70;;;;;;5053874;28;20491;-81
2022/10/25 12:45:16;;;;;;;4.00;0.93;;;18.90;95.40;;;;;;5069585;28;20348;-79
2022/10/25 12:47:58;;;;;;;5.55;1.35;;;18.80;95.20;;;;;;5054623;28;20059;-80
2022/10/25 12:50:55;;;;;;;5.55;1.10;;;18.90;95.10;;;;;;5069263;28;20048;-79
2022/10/25 12:53:40;;;;;;;2.67;1.10;;;19.10;95.00;;;;;;5054287;28;20073;-79
2022/10/25 12:56:31;;;;;;;7.68;1.50;;;19.10;94.80;;;;;;5070057;28;20532;-78
2022/10/25 12:59:08;;;;;;;9.77;1.38;;;19.00;94.90;;;;;;5053952;28;20443;-79
2022/10/25 13:01:53;;;;;;;2.85;1.05;;;18.90;95.00;;;;;;5053946;28;20035;-77
2022/10/25 13:04:30;;;;;;;5.15;1.33;;;19.00;95.20;;;;;;5069138;28;20031;-77